createdAt,value
2023-02-24T00:00:33.126Z,99740.28
2023-02-24T00:05:55.009Z,99742.69
2023-02-24T00:11:18.553Z,99727.31
2023-02-24T00:16:40.706Z,99716.28
2023-02-24T00:22:04.761Z,99706.00
2023-02-24T00:27:26.700Z,99688.13
2023-02-24T00:32:48.654Z,99688.72
2023-02-24T00:38:10.642Z,99684.34
2023-02-24T00:43:32.497Z,99683.47
2023-02-24T00:48:54.627Z,99668.09
2023-02-24T00:54:17.451Z,99676.03
2023-02-24T00:59:39.930Z,99659.09
2023-02-24T01:05:02.451Z,99648.81
2023-02-24T01:10:24.283Z,99633.41
2023-02-24T01:15:46.148Z,99624.06
2023-02-24T01:21:08.012Z,99607.13
2023-02-24T01:26:30.007Z,99614.69
2023-02-24T01:31:52.609Z,99609.38
2023-02-24T01:37:14.618Z,99604.91
2023-02-24T01:42:36.517Z,99588.63
2023-02-24T01:48:02.944Z,99579.31
2023-02-24T01:53:24.979Z,99578.72
2023-02-24T01:58:47.142Z,99569.47
2023-02-24T02:04:29.127Z,99561.81
2023-02-24T02:09:52.215Z,99552.34
2023-02-24T02:15:18.165Z,99543.91
2023-02-24T02:21:01.793Z,99540.53
2023-02-24T02:26:45.127Z,99539.66
2023-02-24T02:32:25.874Z,99528.56
2023-02-24T02:37:54.963Z,99524.16
2023-02-24T02:43:35.187Z,99517.22
2023-02-24T02:48:59.287Z,99524.59
2023-02-24T02:54:40.580Z,99506.72
2023-02-24T03:00:27.870Z,99512.28
2023-02-24T03:05:55.655Z,99498.59
2023-02-24T03:11:20.437Z,99503.56
2023-02-24T03:16:45.854Z,99498.31
2023-02-24T03:22:13.093Z,99497.28
2023-02-24T03:27:59.581Z,99470.16
2023-02-24T03:33:35.660Z,99464.56
2023-02-24T03:38:58.647Z,99472.13
2023-02-24T03:44:20.580Z,99466.78
2023-02-24T03:49:42.450Z,99462.47
2023-02-24T03:55:45.633Z,99457.19
2023-02-24T04:01:22.274Z,99442.66
2023-02-24T04:06:56.105Z,99440.59
2023-02-24T04:12:46.004Z,99426.94
2023-02-24T04:18:21.625Z,99418.09
2023-02-24T04:23:45.025Z,99418.88
2023-02-24T04:29:09.180Z,99393.28
2023-02-24T04:34:31.222Z,99387.03
2023-02-24T04:39:53.081Z,99378.34
2023-02-24T04:45:14.977Z,99379.00
2023-02-24T04:50:37.647Z,99380.72
2023-02-24T04:56:03.634Z,99367.72
2023-02-24T05:01:25.518Z,99372.50
2023-02-24T05:06:47.402Z,99373.06
2023-02-24T05:12:09.239Z,99363.53
2023-02-24T05:17:31.149Z,99361.56
2023-02-24T05:22:53.035Z,99350.66
2023-02-24T05:28:15.022Z,99357.13
2023-02-24T05:33:38.326Z,99352.66
2023-02-24T05:39:00.834Z,99350.94
2023-02-24T05:44:24.267Z,99337.31
2023-02-24T05:49:46.113Z,99342.09
2023-02-24T05:55:08.322Z,99344.63
2023-02-24T06:00:30.182Z,99341.94
2023-02-24T06:05:55.085Z,99342.50
2023-02-24T06:11:19.635Z,99336.53
2023-02-24T06:16:42.662Z,99322.56
2023-02-24T06:22:04.593Z,99335.19
2023-02-24T06:27:26.605Z,99328.25
2023-02-24T06:32:49.342Z,99319.16
2023-02-24T06:38:11.310Z,99322.38
2023-02-24T06:43:33.481Z,99311.94
2023-02-24T06:48:55.681Z,99308.28
2023-02-24T06:54:17.537Z,99303.81
2023-02-24T06:59:39.365Z,99295.44
2023-02-24T07:05:01.233Z,99300.03
2023-02-24T07:10:23.075Z,99297.06
2023-02-24T07:15:44.919Z,99291.97
2023-02-24T07:21:07.655Z,99288.31
2023-02-24T07:26:29.515Z,99289.81
2023-02-24T07:31:51.571Z,99276.47
2023-02-24T07:37:13.668Z,99271.81
2023-02-24T07:42:35.590Z,99257.63
2023-02-24T07:47:57.458Z,99262.84
2023-02-24T07:53:19.319Z,99265.50
2023-02-24T07:58:41.386Z,99256.53
2023-02-24T08:04:03.332Z,99254.38
2023-02-24T08:09:27.966Z,99233.47
2023-02-24T08:14:52.615Z,99240.41
2023-02-24T08:20:15.568Z,99238.78
2023-02-24T08:25:37.519Z,99237.75
2023-02-24T08:31:02.782Z,99233.75
2023-02-24T08:36:24.833Z,99227.06
2023-02-24T08:41:46.677Z,99225.69
2023-02-24T08:47:08.537Z,99218.09
2023-02-24T08:52:32.261Z,99204.81
2023-02-24T08:57:54.341Z,99206.97
2023-02-24T09:03:18.275Z,99201.16
2023-02-24T09:08:40.690Z,99188.75
2023-02-24T09:14:02.638Z,99190.34
2023-02-24T09:19:24.561Z,99183.53
2023-02-24T09:24:46.471Z,99174.13
2023-02-24T09:30:13.022Z,99166.75
2023-02-24T09:35:35.237Z,99170.31
2023-02-24T09:40:58.561Z,99160.72
2023-02-24T09:46:21.687Z,99155.88
2023-02-24T09:51:44.760Z,99150.31
2023-02-24T09:57:15.846Z,99148.69
2023-02-24T10:02:42.012Z,99146.97
2023-02-24T10:08:15.729Z,99143.06
2023-02-24T10:13:54.331Z,99141.97
2023-02-24T10:19:32.338Z,99128.59
2023-02-24T10:25:21.259Z,99122.91
2023-02-24T10:31:03.674Z,99121.31
2023-02-24T10:36:26.496Z,99129.03
2023-02-24T10:41:51.812Z,99117.34
2023-02-24T10:47:13.795Z,99110.75
2023-02-24T10:52:37.338Z,99089.28
2023-02-24T10:58:04.347Z,99092.09
2023-02-24T11:03:32.658Z,99089.66
2023-02-24T11:08:58.634Z,99065.75
2023-02-24T11:14:20.900Z,99063.19
2023-02-24T11:19:54.575Z,99062.41
2023-02-24T11:25:27.007Z,99046.75
2023-02-24T11:31:10.441Z,99037.88
2023-02-24T11:36:40.770Z,99034.97
2023-02-24T11:42:08.543Z,99024.63
2023-02-24T11:47:45.244Z,99006.13
2023-02-24T11:53:22.815Z,99005.81
2023-02-24T11:59:04.323Z,99000.09
2023-02-24T12:04:35.265Z,98997.31
2023-02-24T12:10:17.831Z,98982.69
2023-02-24T12:16:00.926Z,98984.56
2023-02-24T12:21:25.938Z,98975.13
2023-02-24T12:27:18.582Z,98969.66
2023-02-24T12:32:52.964Z,98962.81
2023-02-24T12:38:47.822Z,98961.25
2023-02-24T12:44:23.581Z,98953.31
2023-02-24T12:50:07.034Z,98947.44
2023-02-24T12:55:51.686Z,98938.13
2023-02-24T13:01:24.554Z,98926.06
2023-02-24T13:06:58.561Z,98917.97
2023-02-24T13:12:31.206Z,98908.41
2023-02-24T13:17:57.690Z,98911.41
2023-02-24T13:23:22.062Z,98903.81
2023-02-24T13:28:44.140Z,98888.28
2023-02-24T13:34:28.824Z,98875.53
2023-02-24T13:39:50.691Z,98889.16
2023-02-24T13:45:20.213Z,98876.75
2023-02-24T13:51:03.878Z,98866.63
2023-02-24T13:56:44.420Z,98863.22
2023-02-24T14:02:14.980Z,98846.22
2023-02-24T14:07:39.389Z,98851.31
2023-02-24T14:13:14.066Z,98848.66
2023-02-24T14:18:36.038Z,98861.91
2023-02-24T14:24:10.801Z,98845.31
2023-02-24T14:29:43.617Z,98836.16
2023-02-24T14:35:06.580Z,98826.25
2023-02-24T14:40:29.182Z,98820.03
2023-02-24T14:45:53.159Z,98817.06
2023-02-24T14:51:31.050Z,98806.69
2023-02-24T14:56:53.093Z,98804.06
2023-02-24T15:02:20.474Z,98781.09
2023-02-24T15:07:44.777Z,98802.84
2023-02-24T15:13:23.309Z,98798.06
2023-02-24T15:18:50.230Z,98788.03
2023-02-24T15:24:34.113Z,98783.59
2023-02-24T15:30:24.873Z,98772.19
2023-02-24T15:35:58.827Z,98753.09
2023-02-24T15:41:20.711Z,98757.25
2023-02-24T15:46:42.863Z,98760.19
2023-02-24T15:52:09.939Z,98769.09
2023-02-24T15:57:32.794Z,98769.31
2023-02-24T16:02:54.687Z,98771.13
2023-02-24T16:08:19.365Z,98761.06
2023-02-24T16:13:47.337Z,98745.56
2023-02-24T16:19:14.142Z,98761.31
2023-02-24T16:24:35.982Z,98764.03
2023-02-24T16:29:58.566Z,98758.84
2023-02-24T16:35:20.396Z,98771.44
2023-02-24T16:40:45.428Z,98770.44
2023-02-24T16:46:13.894Z,98756.41
2023-02-24T16:51:36.032Z,98761.66
2023-02-24T16:56:58.151Z,98772.38
2023-02-24T17:02:24.706Z,98783.63
2023-02-24T17:07:50.159Z,98774.81
2023-02-24T17:13:17.868Z,98775.47
2023-02-24T17:18:39.804Z,98786.59
2023-02-24T17:24:01.689Z,98786.13
2023-02-24T17:29:23.521Z,98765.16
2023-02-24T17:34:45.342Z,98743.13
2023-02-24T17:40:08.231Z,98761.91
2023-02-24T17:45:30.071Z,98757.38
2023-02-24T17:50:51.980Z,98733.00
2023-02-24T17:56:13.823Z,98732.91
2023-02-24T18:01:35.662Z,98723.47
2023-02-24T18:06:57.487Z,98730.97
2023-02-24T18:12:20.197Z,98708.22
2023-02-24T18:17:42.083Z,98722.41
2023-02-24T18:23:03.952Z,98704.38
2023-02-24T18:28:25.808Z,98716.00
2023-02-24T18:33:48.335Z,98701.44
2023-02-24T18:39:10.413Z,98687.03
2023-02-24T18:44:32.379Z,98694.59
2023-02-24T18:49:54.332Z,98680.19
2023-02-24T18:55:16.362Z,98682.06
2023-02-24T19:00:38.601Z,98688.19
2023-02-24T19:06:00.541Z,98662.34
2023-02-24T19:11:22.409Z,98652.88
2023-02-24T19:16:45.300Z,98647.44
2023-02-24T19:22:07.220Z,98634.44
2023-02-24T19:27:29.109Z,98625.72
2023-02-24T19:32:51.128Z,98628.53
2023-02-24T19:38:18.329Z,98636.94
2023-02-24T19:43:40.254Z,98614.25
2023-02-24T19:49:03.164Z,98613.41
2023-02-24T19:54:25.300Z,98598.69
2023-02-24T19:59:49.928Z,98600.41
2023-02-24T20:05:11.866Z,98594.06
2023-02-24T20:10:33.713Z,98619.84
2023-02-24T20:16:13.180Z,98611.47
2023-02-24T20:21:36.080Z,98608.91
2023-02-24T20:26:57.917Z,98596.34
2023-02-24T20:32:19.812Z,98585.28
2023-02-24T20:37:41.720Z,98595.63
2023-02-24T20:43:05.731Z,98587.00
2023-02-24T20:48:27.551Z,98589.41
2023-02-24T20:53:57.227Z,98578.31
2023-02-24T20:59:21.156Z,98569.66
2023-02-24T21:04:42.991Z,98555.75
2023-02-24T21:10:05.414Z,98541.47
2023-02-24T21:15:27.387Z,98541.31
2023-02-24T21:20:53.119Z,98537.47
2023-02-24T21:26:15.228Z,98523.91
2023-02-24T21:31:37.122Z,98518.56
2023-02-24T21:36:59.080Z,98516.19
2023-02-24T21:42:20.989Z,98500.97
2023-02-24T21:47:43.232Z,98499.72
2023-02-24T21:53:05.138Z,98476.66
2023-02-24T21:58:26.971Z,98485.66
2023-02-24T22:03:48.988Z,98477.81
2023-02-24T22:09:12.055Z,98459.03
2023-02-24T22:14:33.888Z,98449.63
2023-02-24T22:19:55.734Z,98461.59
2023-02-24T22:25:17.629Z,98453.78
2023-02-24T22:30:39.478Z,98442.03
2023-02-24T22:36:06.820Z,98422.50
2023-02-24T22:41:32.195Z,98419.44
2023-02-24T22:46:54.106Z,98398.44
2023-02-24T22:52:15.943Z,98403.44
2023-02-24T22:57:37.797Z,98384.63
2023-02-24T23:02:59.665Z,98374.44
2023-02-24T23:08:21.958Z,98387.75
2023-02-24T23:13:45.687Z,98368.09
2023-02-24T23:19:13.523Z,98363.00
2023-02-24T23:24:35.395Z,98358.50
2023-02-24T23:29:57.234Z,98362.22
2023-02-24T23:35:19.057Z,98348.50
2023-02-24T23:40:49.910Z,98349.38
2023-02-24T23:46:13.221Z,98322.16
2023-02-24T23:51:47.541Z,98309.50
2023-02-24T23:57:10.185Z,98301.72
